createdAt,value
2022-09-10T00:00:38.282Z,6.90
2022-09-10T00:05:44.671Z,6.68
2022-09-10T00:10:49.337Z,7.27
2022-09-10T00:15:54.175Z,7.22
2022-09-10T00:20:59.487Z,8.00
2022-09-10T00:26:11.240Z,8.40
2022-09-10T00:31:14.148Z,7.70
2022-09-10T00:36:20.734Z,8.50
2022-09-10T00:41:24.871Z,9.30
2022-09-10T00:46:36.135Z,9.50
2022-09-10T00:51:41.086Z,9.60
2022-09-10T00:56:43.832Z,9.13
2022-09-10T01:01:47.750Z,8.77
2022-09-10T01:06:52.089Z,8.68
2022-09-10T01:12:10.938Z,8.32
2022-09-10T01:17:25.597Z,8.95
2022-09-10T01:22:48.021Z,8.82
2022-09-10T01:27:54.853Z,8.27
2022-09-10T01:33:05.129Z,9.13
2022-09-10T01:38:12.785Z,8.40
2022-09-10T01:43:16.938Z,9.23
2022-09-10T01:48:51.708Z,8.77
2022-09-10T01:54:08.611Z,8.18
2022-09-10T01:59:23.417Z,8.55
2022-09-10T02:04:28.064Z,8.23
2022-09-10T02:09:30.615Z,8.68
2022-09-10T02:14:34.713Z,8.10
2022-09-10T02:19:37.895Z,8.35
2022-09-10T02:24:40.815Z,8.90
2022-09-10T02:29:45.019Z,9.18
2022-09-10T02:34:47.631Z,9.07
2022-09-10T02:39:50.165Z,8.55
2022-09-10T02:44:54.362Z,8.23
2022-09-10T02:49:57.271Z,7.90
2022-09-10T02:55:01.273Z,9.27
2022-09-10T03:00:06.985Z,9.15
2022-09-10T03:05:10.286Z,9.02
2022-09-10T03:10:12.854Z,9.90
2022-09-10T03:15:17.164Z,8.93
2022-09-10T03:20:19.928Z,9.38
2022-09-10T03:25:22.905Z,8.88
2022-09-10T03:30:27.218Z,9.63
2022-09-10T03:35:29.824Z,9.65
2022-09-10T03:40:32.685Z,9.40
2022-09-10T03:45:37.156Z,9.15
2022-09-10T03:50:40.063Z,8.95
2022-09-10T03:55:44.291Z,9.68
2022-09-10T04:00:49.130Z,9.73
2022-09-10T04:05:52.064Z,8.82
2022-09-10T04:10:55.270Z,9.27
2022-09-10T04:15:59.601Z,9.10
2022-09-10T04:21:02.499Z,9.82
2022-09-10T04:26:13.023Z,10.30
2022-09-10T04:31:17.769Z,9.95
2022-09-10T04:36:24.788Z,10.10
2022-09-10T04:41:27.988Z,9.15
2022-09-10T04:46:32.552Z,10.15
2022-09-10T04:51:35.612Z,9.93
2022-09-10T04:56:38.697Z,10.27
2022-09-10T05:01:43.638Z,10.43
2022-09-10T05:06:46.365Z,9.70
2022-09-10T05:11:49.335Z,10.25
2022-09-10T05:16:53.718Z,10.18
2022-09-10T05:21:56.639Z,10.43
2022-09-10T05:27:06.910Z,9.20
2022-09-10T05:32:12.182Z,9.93
2022-09-10T05:37:25.721Z,10.45
2022-09-10T05:43:00.457Z,11.02
2022-09-10T05:48:20.373Z,9.95
2022-09-10T05:53:53.679Z,10.45
2022-09-10T05:58:59.739Z,11.30
2022-09-10T06:04:04.913Z,10.35
2022-09-10T06:09:14.817Z,11.10
2022-09-10T06:14:18.233Z,10.32
2022-09-10T06:19:23.275Z,10.57
2022-09-10T06:24:28.600Z,10.63
2022-09-10T06:29:50.647Z,11.27
2022-09-10T06:34:55.352Z,10.73
2022-09-10T06:39:58.566Z,11.43
2022-09-10T06:45:02.451Z,11.13
2022-09-10T06:50:09.207Z,9.75
2022-09-10T06:55:12.076Z,10.88
2022-09-10T07:00:16.361Z,10.60
2022-09-10T07:05:21.264Z,11.55
2022-09-10T07:10:24.714Z,11.93
2022-09-10T07:15:27.607Z,11.13
2022-09-10T07:20:32.686Z,11.95
2022-09-10T07:25:41.556Z,11.23
2022-09-10T07:30:47.355Z,13.32
2022-09-10T07:35:51.574Z,11.95
2022-09-10T07:40:54.077Z,12.30
2022-09-10T07:45:58.295Z,13.05
2022-09-10T07:51:06.453Z,13.95
2022-09-10T07:56:09.310Z,12.95
2022-09-10T08:01:13.003Z,13.68
2022-09-10T08:06:17.956Z,13.90
2022-09-10T08:11:21.885Z,11.88
2022-09-10T08:16:26.027Z,11.80
2022-09-10T08:21:40.319Z,11.43
2022-09-10T08:26:43.003Z,12.40
2022-09-10T08:31:45.532Z,12.00
2022-09-10T08:36:49.782Z,11.20
2022-09-10T08:41:56.864Z,10.43
2022-09-10T08:52:18.752Z,9.40
2022-09-10T08:57:27.335Z,11.15
2022-09-10T09:02:48.858Z,9.82
2022-09-10T09:07:54.835Z,10.25
2022-09-10T09:13:17.897Z,11.43
2022-09-10T09:18:34.717Z,9.77
2022-09-10T09:24:11.846Z,9.13
2022-09-10T09:29:17.729Z,9.63
2022-09-10T09:34:27.906Z,10.85
2022-09-10T09:39:39.503Z,10.93
2022-09-10T09:44:48.814Z,10.00
2022-09-10T09:49:51.399Z,10.25
2022-09-10T09:55:14.449Z,8.15
2022-09-10T10:00:36.057Z,10.15
2022-09-10T10:05:39.818Z,9.20
2022-09-10T10:10:44.561Z,9.10
2022-09-10T10:15:47.507Z,10.05
2022-09-10T10:21:06.681Z,9.45
2022-09-10T10:26:27.082Z,9.55
2022-09-10T10:31:39.932Z,9.25
2022-09-10T10:36:56.040Z,9.63
2022-09-10T10:42:08.306Z,16.02
2022-09-10T10:47:25.568Z,9.75
2022-09-10T10:52:37.776Z,10.18
2022-09-10T10:58:04.383Z,9.40
2022-09-10T11:03:15.621Z,8.45
2022-09-10T11:08:25.676Z,8.38
2022-09-10T11:13:39.765Z,7.95
2022-09-10T11:18:47.221Z,8.27
2022-09-10T11:23:56.509Z,8.82
2022-09-10T11:29:21.416Z,8.10
2022-09-10T11:34:32.738Z,7.00
2022-09-10T11:39:38.665Z,7.85
2022-09-10T11:44:56.607Z,8.00
2022-09-10T11:50:06.019Z,11.20
2022-09-10T11:55:15.782Z,8.52
2022-09-10T12:00:20.975Z,7.85
2022-09-10T12:05:31.594Z,7.53
2022-09-10T12:10:42.741Z,8.02
2022-09-10T12:15:54.735Z,7.45
2022-09-10T12:21:08.719Z,7.65
2022-09-10T12:26:13.641Z,6.78
2022-09-10T12:31:19.283Z,6.40
2022-09-10T12:36:55.217Z,6.70
2022-09-10T12:42:02.070Z,6.40
2022-09-10T12:47:40.571Z,7.03
2022-09-10T12:52:54.500Z,6.75
2022-09-10T12:58:04.469Z,6.68
2022-09-10T13:03:16.555Z,6.18
2022-09-10T13:08:23.274Z,6.47
2022-09-10T13:13:39.940Z,7.13
2022-09-10T13:18:44.713Z,7.85
2022-09-10T13:23:48.204Z,6.90
2022-09-10T13:29:05.103Z,6.20
2022-09-10T13:34:33.764Z,5.75
2022-09-10T13:40:14.608Z,5.22
2022-09-10T13:45:24.478Z,11.50
2022-09-10T13:50:34.949Z,7.88
2022-09-10T13:55:38.562Z,6.68
2022-09-10T14:00:49.186Z,6.13
2022-09-10T14:05:56.521Z,5.18
2022-09-10T14:11:01.370Z,4.82
2022-09-10T14:16:08.679Z,5.72
2022-09-10T14:21:15.553Z,6.50
2022-09-10T14:26:20.445Z,6.88
2022-09-10T14:31:30.554Z,6.75
2022-09-10T14:36:35.255Z,7.05
2022-09-10T14:41:37.796Z,6.22
2022-09-10T14:46:48.882Z,7.00
2022-09-10T14:51:53.086Z,8.07
2022-09-10T14:56:57.850Z,7.05
2022-09-10T15:02:01.699Z,7.90
2022-09-10T15:07:06.113Z,7.45
2022-09-10T15:12:12.980Z,7.28
2022-09-10T15:17:16.554Z,6.68
2022-09-10T15:22:23.790Z,7.70
2022-09-10T15:27:26.167Z,7.55
2022-09-10T15:32:28.503Z,7.93
2022-09-10T15:37:32.425Z,7.10
2022-09-10T15:42:35.096Z,7.13
2022-09-10T15:47:37.851Z,7.30
2022-09-10T15:52:41.710Z,8.48
2022-09-10T15:57:44.169Z,7.90
2022-09-10T16:02:50.902Z,7.88
2022-09-10T16:07:54.834Z,10.18
2022-09-10T16:12:57.188Z,10.27
2022-09-10T16:18:01.772Z,9.80
2022-09-10T16:23:06.586Z,9.13
2022-09-10T16:28:09.285Z,7.28
2022-09-10T16:33:11.842Z,8.02
2022-09-10T16:38:19.228Z,7.53
2022-09-10T16:43:24.153Z,7.78
2022-09-10T16:48:37.436Z,7.78
2022-09-10T16:53:47.524Z,7.28
2022-09-10T16:58:55.122Z,7.45
2022-09-10T17:03:58.644Z,7.35
2022-09-10T17:09:04.239Z,7.70
2022-09-10T17:14:06.675Z,14.20
2022-09-10T17:19:12.602Z,7.72
2022-09-10T17:24:24.061Z,8.48
2022-09-10T17:29:27.504Z,7.28
2022-09-10T17:34:33.153Z,7.68
2022-09-10T17:44:51.687Z,8.95
2022-09-10T17:49:55.448Z,12.98
2022-09-10T17:55:00.377Z,12.93
2022-09-10T18:00:16.794Z,10.52
2022-09-10T18:05:19.492Z,10.27
2022-09-10T18:10:23.955Z,9.00
2022-09-10T18:15:34.130Z,16.17
2022-09-10T18:20:36.963Z,15.00
2022-09-10T18:25:41.128Z,14.23
2022-09-10T18:30:43.721Z,27.35
2022-09-10T18:35:46.431Z,16.55
2022-09-10T18:40:50.160Z,14.20
2022-09-10T18:45:52.909Z,14.85
2022-09-10T18:50:55.466Z,13.18
2022-09-10T18:56:05.356Z,13.43
2022-09-10T19:01:10.121Z,12.57
2022-09-10T19:06:15.006Z,12.82
2022-09-10T19:11:19.934Z,12.98
2022-09-10T19:16:25.585Z,11.85
2022-09-10T19:21:30.353Z,11.63
2022-09-10T19:26:35.052Z,11.30
2022-09-10T19:31:38.919Z,11.02
2022-09-10T19:36:41.669Z,11.73
2022-09-10T19:41:46.427Z,12.05
2022-09-10T19:46:49.002Z,11.40
2022-09-10T19:51:51.862Z,10.45
2022-09-10T19:56:55.903Z,11.70
2022-09-10T20:01:58.375Z,11.77
2022-09-10T20:07:01.415Z,11.35
2022-09-10T20:12:05.587Z,11.75
2022-09-10T20:17:08.191Z,10.50
2022-09-10T20:22:10.968Z,11.00
2022-09-10T20:27:14.780Z,9.98
2022-09-10T20:32:17.541Z,10.82
2022-09-10T20:37:19.852Z,10.13
2022-09-10T20:42:24.475Z,10.95
2022-09-10T20:47:27.080Z,10.45
2022-09-10T20:52:29.582Z,9.75
2022-09-10T20:57:33.767Z,11.55
2022-09-10T21:02:36.486Z,10.68
2022-09-10T21:07:39.048Z,9.85
2022-09-10T21:12:43.285Z,9.75
2022-09-10T21:17:47.742Z,8.73
2022-09-10T21:22:50.409Z,9.60
2022-09-10T21:27:54.823Z,11.38
2022-09-10T21:32:57.387Z,11.00
2022-09-10T21:38:00.087Z,9.23
2022-09-10T21:43:03.760Z,9.68
2022-09-10T21:48:06.117Z,9.65
2022-09-10T21:53:08.425Z,9.40
2022-09-10T21:58:12.955Z,8.35
2022-09-10T22:03:15.592Z,8.32
2022-09-10T22:08:17.891Z,8.10
2022-09-10T22:13:21.754Z,7.22
2022-09-10T22:18:24.588Z,7.40
2022-09-10T22:23:29.140Z,5.72
2022-09-10T22:28:34.976Z,5.40
2022-09-10T22:33:38.210Z,5.80
2022-09-10T22:38:40.753Z,5.28
2022-09-10T22:43:44.852Z,6.10
2022-09-10T22:48:47.541Z,6.50
2022-09-10T22:53:52.538Z,6.55
2022-09-10T22:58:58.367Z,6.90
2022-09-10T23:04:02.079Z,4.97
2022-09-10T23:09:06.841Z,9.57
2022-09-10T23:14:13.692Z,6.68
2022-09-10T23:19:18.569Z,4.40
2022-09-10T23:24:22.395Z,3.80
2022-09-10T23:29:26.020Z,4.30
2022-09-10T23:34:28.365Z,5.75
2022-09-10T23:39:30.592Z,5.72
2022-09-10T23:44:34.291Z,5.75
2022-09-10T23:49:36.408Z,4.75
2022-09-10T23:54:38.641Z,4.43
2022-09-10T23:59:42.508Z,4.65
